CheckWX is a tool to help pilots better visualize weather data.  It is not intended as a substitute for an official pre-flight weather briefing.

02:47:07 UTC

KBEC METAR
Beech Factory Airport
Wichita, Kansas, USA
Current

12 mins ago

KBEC 290235Z AUTO 28004KT 10SM CLR 09/M02 A3024 RMK AO2 T00861025
Observed
Feb-29 @ 02:35 UTC
Wind
  • 280° at 4 KTS
Visibility
10 SM
Flight Rules
VFR
Cloud Levels
  • Clear skies
Temperature
C / 48°F
Dewpoint
-3°C / 27°F
Humidity
43%
Altimeter
30.24" Hg
Pressure
1024.02 hPa
Previous

32 mins ago

KBEC 290215Z AUTO 30003KT 10SM CLR 10/M02 A3023 RMK AO2 T00951025
Observed
Feb-29 @ 02:15 UTC
Wind
  • 300° at 3 KTS
Visibility
10 SM
Flight Rules
VFR
Cloud Levels
  • Clear skies
Temperature
10°C / 50°F
Dewpoint
-3°C / 27°F
Humidity
40%
Altimeter
30.23" Hg
Pressure
1023.72 hPa
Previous

52 mins ago

KBEC 290155Z AUTO 30003KT 10SM CLR 11/M03 A3022 RMK AO2 T01051030
Observed
Feb-29 @ 01:55 UTC
Wind
  • 300° at 3 KTS
Visibility
10 SM
Flight Rules
VFR
Cloud Levels
  • Clear skies
Temperature
11°C / 52°F
Dewpoint
-3°C / 27°F
Humidity
38%
Altimeter
30.22" Hg
Pressure
1023.42 hPa